Southlake's Hourly Summary for Friday, July 6, 2018
Hour Temp
(f)
RH
(%)
Solar Rad.
(MJ/m2)
Rainfall
(in)
Wind
(mph)
7/6/2018 12:00 AM 85 63 0 0 3.65
7/6/2018 1:00 AM 83 68 0 0 1.57
7/6/2018 2:00 AM 81 75 0 0 1.46
7/6/2018 3:00 AM 78 81 0 0 1.56
7/6/2018 4:00 AM 77 85 0 0 1.51
7/6/2018 5:00 AM 78 85 0 0 2.57
7/6/2018 6:00 AM 77 88 0.02 0 1.96
7/6/2018 7:00 AM 79 83 0.25 0 3.08
7/6/2018 8:00 AM 79 86 1.02 0 4.14
7/6/2018 9:00 AM 85 69 1.69 0 3.91
7/6/2018 10:00 AM 87 63 2.14 0 2.57
7/6/2018 11:00 AM 90 54 2.6 0 4.31
7/6/2018 12:00 PM 92 48 2.62 0 5.14
7/6/2018 1:00 PM 94 45 3.01 0 5.82
7/6/2018 2:00 PM 95 40 3.47 0 6.15
7/6/2018 3:00 PM 94 43 2.41 0 4.25
7/6/2018 4:00 PM 86 63 1.66 0.03 6.6
7/6/2018 5:00 PM 84 69 0.63 0 3.97
7/6/2018 6:00 PM 87 55 0.82 0 3.41
7/6/2018 7:00 PM 87 55 0.41 0 3.19
7/6/2018 8:00 PM 84 64 0.04 0 3.52
7/6/2018 9:00 PM 82 70 0 0 3.3
7/6/2018 10:00 PM 80 77 0 0 2.96
7/6/2018 11:00 PM 79 80 0 0 1.51
Data Summary 84 67 22.79 0.03 3.42